Las Vegas, Nevada
Traffic Map
Current Weather Conditions
Las Vegas, Nevada
Clear
Clear
78°
Feels Like: 78°
Wind Chill: 78° Ceiling: Unl
Heat Index: 78° Visibility: 10mi
Dew Point: 42° Wind: 7mph
Humidity: 28% Direction: 190° (S)
Pressure: 29.89in Gusts: 0mph
Raw Report DataKLAS 250856Z 19006KT 10SM CLR 26/06 A2989 RMK AO2 SLP097 T02560056 58002
Traffic Incident Summary
Active as of:
Severity:
Category:
InformationThere was an issue retrieving the traffic information for this location. Please try a different location or try again shortly.
Advertisements